sensor_id;sensor_type;location;lat;lon;timestamp;pressure;altitude;pressure_sealevel;temperature;humidity
40918;BME280;26644;50.248;19.032;2023-01-30T00:01:14;98154.47;;;-2.42;65.43
40918;BME280;26644;50.248;19.032;2023-01-30T00:04:22;98173.75;;;-2.18;64.96
40918;BME280;26644;50.248;19.032;2023-01-30T00:07:27;98143.13;;;-2.31;64.69
40918;BME280;26644;50.248;19.032;2023-01-30T00:10:32;98150.59;;;-2.26;64.62
40918;BME280;26644;50.248;19.032;2023-01-30T00:13:38;98140.66;;;-2.26;64.55
40918;BME280;26644;50.248;19.032;2023-01-30T00:16:47;98127.41;;;-2.20;64.62
40918;BME280;26644;50.248;19.032;2023-01-30T00:19:52;98109.59;;;-2.42;65.02
40918;BME280;26644;50.248;19.032;2023-01-30T00:22:58;98124.28;;;-2.31;64.86
40918;BME280;26644;50.248;19.032;2023-01-30T00:26:04;98104.19;;;-2.55;64.84
40918;BME280;26644;50.248;19.032;2023-01-30T00:29:13;98108.13;;;-2.44;64.95
40918;BME280;26644;50.248;19.032;2023-01-30T00:32:21;98107.50;;;-2.46;65.10
40918;BME280;26644;50.248;19.032;2023-01-30T00:35:28;98065.06;;;-2.71;65.58
40918;BME280;26644;50.248;19.032;2023-01-30T00:38:33;98082.06;;;-2.50;65.49
40918;BME280;26644;50.248;19.032;2023-01-30T00:41:38;98102.13;;;-2.39;65.39
40918;BME280;26644;50.248;19.032;2023-01-30T00:44:56;98063.44;;;-2.52;65.32
40918;BME280;26644;50.248;19.032;2023-01-30T00:48:16;98102.97;;;-2.46;65.56
40918;BME280;26644;50.248;19.032;2023-01-30T00:51:21;98093.44;;;-2.55;65.90
40918;BME280;26644;50.248;19.032;2023-01-30T00:54:30;98060.06;;;-2.74;66.42
40918;BME280;26644;50.248;19.032;2023-01-30T00:57:35;98068.78;;;-2.72;66.56
40918;BME280;26644;50.248;19.032;2023-01-30T01:00:40;98072.28;;;-2.71;66.81
40918;BME280;26644;50.248;19.032;2023-01-30T01:03:48;98069.19;;;-2.75;66.88
40918;BME280;26644;50.248;19.032;2023-01-30T01:06:54;98065.44;;;-2.81;67.19
40918;BME280;26644;50.248;19.032;2023-01-30T01:09:59;98068.50;;;-2.91;67.56
40918;BME280;26644;50.248;19.032;2023-01-30T01:13:05;98045.53;;;-3.06;68.00
40918;BME280;26644;50.248;19.032;2023-01-30T01:16:11;98036.22;;;-3.04;68.25
40918;BME280;26644;50.248;19.032;2023-01-30T01:19:20;98033.94;;;-3.14;68.69
40918;BME280;26644;50.248;19.032;2023-01-30T01:22:25;98030.38;;;-3.21;69.09
40918;BME280;26644;50.248;19.032;2023-01-30T01:25:31;97996.44;;;-3.35;69.23
40918;BME280;26644;50.248;19.032;2023-01-30T01:28:36;97996.66;;;-3.37;69.83
40918;BME280;26644;50.248;19.032;2023-01-30T01:31:43;98008.63;;;-3.39;70.12
40918;BME280;26644;50.248;19.032;2023-01-30T01:34:53;98001.31;;;-3.52;70.76
40918;BME280;26644;50.248;19.032;2023-01-30T01:37:59;97999.03;;;-3.55;70.83
40918;BME280;26644;50.248;19.032;2023-01-30T01:41:04;97994.22;;;-3.67;71.41
40918;BME280;26644;50.248;19.032;2023-01-30T01:44:12;97973.78;;;-3.75;71.37
40918;BME280;26644;50.248;19.032;2023-01-30T01:47:18;97986.41;;;-3.62;71.51
40918;BME280;26644;50.248;19.032;2023-01-30T01:50:37;97966.59;;;-3.61;71.84
40918;BME280;26644;50.248;19.032;2023-01-30T01:53:52;97920.63;;;-3.99;72.81
40918;BME280;26644;50.248;19.032;2023-01-30T01:57:05;97918.44;;;-3.82;72.63
40918;BME280;26644;50.248;19.032;2023-01-30T02:00:16;97936.22;;;-3.75;73.07
40918;BME280;26644;50.248;19.032;2023-01-30T02:03:28;97916.38;;;-3.73;72.99
40918;BME280;26644;50.248;19.032;2023-01-30T02:06:42;97902.81;;;-3.72;73.39
40918;BME280;26644;50.248;19.032;2023-01-30T02:09:49;97905.66;;;-3.73;73.72
40918;BME280;26644;50.248;19.032;2023-01-30T02:12:55;97901.13;;;-3.73;73.80
40918;BME280;26644;50.248;19.032;2023-01-30T02:16:03;97891.66;;;-3.69;73.47
40918;BME280;26644;50.248;19.032;2023-01-30T02:19:23;97871.38;;;-3.85;73.66
40918;BME280;26644;50.248;19.032;2023-01-30T02:23:06;97889.97;;;-3.77;74.09
40918;BME280;26644;50.248;19.032;2023-01-30T02:30:43;97867.91;;;-3.72;73.86
40918;BME280;26644;50.248;19.032;2023-01-30T02:34:22;97858.00;;;-3.71;73.86
40918;BME280;26644;50.248;19.032;2023-01-30T02:37:51;97856.56;;;-3.67;73.87
40918;BME280;26644;50.248;19.032;2023-01-30T02:41:19;97859.50;;;-3.55;73.60
40918;BME280;26644;50.248;19.032;2023-01-30T02:44:41;97841.34;;;-3.53;73.39
40918;BME280;26644;50.248;19.032;2023-01-30T02:48:02;97834.53;;;-3.49;73.15
40918;BME280;26644;50.248;19.032;2023-01-30T02:51:15;97814.50;;;-3.53;73.12
40918;BME280;26644;50.248;19.032;2023-01-30T02:54:23;97824.63;;;-3.42;72.92
40918;BME280;26644;50.248;19.032;2023-01-30T02:57:29;97811.63;;;-3.38;72.82
40918;BME280;26644;50.248;19.032;2023-01-30T03:00:56;97821.97;;;-3.29;72.60
40918;BME280;26644;50.248;19.032;2023-01-30T03:04:45;97819.28;;;-3.29;72.38
40918;BME280;26644;50.248;19.032;2023-01-30T03:08:13;97804.81;;;-3.34;71.99
40918;BME280;26644;50.248;19.032;2023-01-30T03:11:36;97814.97;;;-3.16;72.18
40918;BME280;26644;50.248;19.032;2023-01-30T03:14:57;97799.03;;;-3.11;71.77
40918;BME280;26644;50.248;19.032;2023-01-30T03:18:07;97804.22;;;-3.03;71.44
40918;BME280;26644;50.248;19.032;2023-01-30T03:21:16;97795.31;;;-3.03;71.34
40918;BME280;26644;50.248;19.032;2023-01-30T03:24:23;97771.38;;;-3.18;71.21
40918;BME280;26644;50.248;19.032;2023-01-30T03:27:33;97798.44;;;-3.06;71.36
40918;BME280;26644;50.248;19.032;2023-01-30T03:30:40;97792.03;;;-3.12;71.33
40918;BME280;26644;50.248;19.032;2023-01-30T03:33:45;97782.53;;;-3.21;71.27
40918;BME280;26644;50.248;19.032;2023-01-30T03:36:54;97795.97;;;-3.08;71.22
40918;BME280;26644;50.248;19.032;2023-01-30T03:39:59;97788.72;;;-3.08;71.28
40918;BME280;26644;50.248;19.032;2023-01-30T03:43:07;97776.72;;;-3.12;71.38
40918;BME280;26644;50.248;19.032;2023-01-30T03:46:12;97774.88;;;-3.11;71.38
40918;BME280;26644;50.248;19.032;2023-01-30T03:49:18;97771.56;;;-3.13;71.33
40918;BME280;26644;50.248;19.032;2023-01-30T03:52:26;97767.66;;;-3.11;71.17
40918;BME280;26644;50.248;19.032;2023-01-30T03:55:32;97753.22;;;-3.16;71.18
40918;BME280;26644;50.248;19.032;2023-01-30T03:58:37;97755.03;;;-3.03;71.03
40918;BME280;26644;50.248;19.032;2023-01-30T04:01:52;97754.00;;;-3.02;70.82
40918;BME280;26644;50.248;19.032;2023-01-30T04:04:58;97744.69;;;-3.00;70.60
40918;BME280;26644;50.248;19.032;2023-01-30T04:08:08;97734.38;;;-2.96;70.41
40918;BME280;26644;50.248;19.032;2023-01-30T04:11:13;97731.03;;;-2.92;70.43
40918;BME280;26644;50.248;19.032;2023-01-30T04:14:19;97721.75;;;-2.96;70.33
40918;BME280;26644;50.248;19.032;2023-01-30T04:17:44;97719.28;;;-2.91;70.20
40918;BME280;26644;50.248;19.032;2023-01-30T04:21:10;97711.00;;;-2.89;70.02
40918;BME280;26644;50.248;19.032;2023-01-30T04:24:19;97695.53;;;-3.00;69.95
40918;BME280;26644;50.248;19.032;2023-01-30T04:27:25;97695.31;;;-2.92;69.72
40918;BME280;26644;50.248;19.032;2023-01-30T04:30:52;97695.06;;;-2.84;69.71
40918;BME280;26644;50.248;19.032;2023-01-30T04:34:17;97698.41;;;-2.88;69.69
40918;BME280;26644;50.248;19.032;2023-01-30T04:37:23;97702.53;;;-2.93;69.69
40918;BME280;26644;50.248;19.032;2023-01-30T04:40:32;97682.50;;;-3.03;69.92
40918;BME280;26644;50.248;19.032;2023-01-30T04:43:37;97680.47;;;-3.01;69.92
40918;BME280;26644;50.248;19.032;2023-01-30T04:47:04;97698.81;;;-2.98;70.07
40918;BME280;26644;50.248;19.032;2023-01-30T04:50:10;97691.38;;;-2.89;69.89
40918;BME280;26644;50.248;19.032;2023-01-30T04:53:18;97669.91;;;-2.96;69.64
40918;BME280;26644;50.248;19.032;2023-01-30T04:56:26;97691.78;;;-2.86;69.28
40918;BME280;26644;50.248;19.032;2023-01-30T04:59:33;97682.88;;;-2.80;69.57
40918;BME280;26644;50.248;19.032;2023-01-30T05:02:41;97669.88;;;-2.83;69.12
40918;BME280;26644;50.248;19.032;2023-01-30T05:05:53;97660.38;;;-2.85;69.26
40918;BME280;26644;50.248;19.032;2023-01-30T05:08:59;97658.91;;;-2.81;69.20
40918;BME280;26644;50.248;19.032;2023-01-30T05:12:07;97629.56;;;-2.83;68.79
40918;BME280;26644;50.248;19.032;2023-01-30T05:15:13;97644.81;;;-2.70;68.74
40918;BME280;26644;50.248;19.032;2023-01-30T05:18:19;97654.91;;;-2.65;68.65
40918;BME280;26644;50.248;19.032;2023-01-30T05:21:25;97651.59;;;-2.67;68.79
40918;BME280;26644;50.248;19.032;2023-01-30T05:24:32;97640.66;;;-2.66;68.54
40918;BME280;26644;50.248;19.032;2023-01-30T05:27:39;97635.47;;;-2.67;68.61
40918;BME280;26644;50.248;19.032;2023-01-30T05:30:45;97626.56;;;-2.61;68.42
40918;BME280;26644;50.248;19.032;2023-01-30T05:33:51;97608.81;;;-2.69;68.28
40918;BME280;26644;50.248;19.032;2023-01-30T05:36:57;97626.00;;;-2.70;68.30
40918;BME280;26644;50.248;19.032;2023-01-30T05:40:03;97612.34;;;-2.68;68.00
40918;BME280;26644;50.248;19.032;2023-01-30T05:43:12;97625.38;;;-2.72;67.95
40918;BME280;26644;50.248;19.032;2023-01-30T05:46:18;97625.09;;;-2.57;67.55
40918;BME280;26644;50.248;19.032;2023-01-30T05:49:24;97595.78;;;-2.65;67.49
40918;BME280;26644;50.248;19.032;2023-01-30T05:52:29;97558.47;;;-2.80;67.52
40918;BME280;26644;50.248;19.032;2023-01-30T05:55:38;97585.00;;;-2.59;67.45
40918;BME280;26644;50.248;19.032;2023-01-30T05:58:49;97559.16;;;-2.60;67.24
40918;BME280;26644;50.248;19.032;2023-01-30T06:01:55;97569.41;;;-2.43;67.15
40918;BME280;26644;50.248;19.032;2023-01-30T06:05:00;97549.97;;;-2.45;66.71
40918;BME280;26644;50.248;19.032;2023-01-30T06:08:06;97551.41;;;-2.43;66.38
40918;BME280;26644;50.248;19.032;2023-01-30T06:11:13;97552.88;;;-2.47;66.46
40918;BME280;26644;50.248;19.032;2023-01-30T06:14:23;97564.22;;;-2.38;66.40
40918;BME280;26644;50.248;19.032;2023-01-30T06:17:28;97564.00;;;-2.36;66.27
40918;BME280;26644;50.248;19.032;2023-01-30T06:20:33;97561.09;;;-2.35;66.35
40918;BME280;26644;50.248;19.032;2023-01-30T06:23:38;97542.66;;;-2.31;66.31
40918;BME280;26644;50.248;19.032;2023-01-30T06:26:44;97447.41;;;-2.99;66.21
40918;BME280;26644;50.248;19.032;2023-01-30T06:29:51;97566.59;;;-2.23;66.10
40918;BME280;26644;50.248;19.032;2023-01-30T06:32:57;97554.44;;;-2.32;66.12
40918;BME280;26644;50.248;19.032;2023-01-30T06:36:03;97524.00;;;-2.51;66.42
40918;BME280;26644;50.248;19.032;2023-01-30T06:39:09;97516.28;;;-2.48;65.96
40918;BME280;26644;50.248;19.032;2023-01-30T06:42:14;97534.06;;;-2.47;66.26
40918;BME280;26644;50.248;19.032;2023-01-30T06:45:22;97529.31;;;-2.45;66.27
40918;BME280;26644;50.248;19.032;2023-01-30T06:48:27;97525.16;;;-2.41;66.09
40918;BME280;26644;50.248;19.032;2023-01-30T06:51:33;97526.09;;;-2.28;65.78
40918;BME280;26644;50.248;19.032;2023-01-30T06:54:38;97513.50;;;-2.34;65.99
40918;BME280;26644;50.248;19.032;2023-01-30T06:57:45;97519.44;;;-2.26;65.74
40918;BME280;26644;50.248;19.032;2023-01-30T07:00:53;97524.44;;;-2.29;65.80
40918;BME280;26644;50.248;19.032;2023-01-30T07:03:59;97509.19;;;-2.35;65.67
40918;BME280;26644;50.248;19.032;2023-01-30T07:07:04;97515.28;;;-2.21;65.52
40918;BME280;26644;50.248;19.032;2023-01-30T07:10:10;97509.31;;;-2.23;65.46
40918;BME280;26644;50.248;19.032;2023-01-30T07:13:15;97501.44;;;-2.25;65.27
40918;BME280;26644;50.248;19.032;2023-01-30T07:16:24;97493.19;;;-2.30;65.53
40918;BME280;26644;50.248;19.032;2023-01-30T07:19:29;97488.78;;;-2.18;65.42
40918;BME280;26644;50.248;19.032;2023-01-30T07:22:35;97473.06;;;-2.21;65.17
40918;BME280;26644;50.248;19.032;2023-01-30T07:25:40;97451.81;;;-2.29;65.21
40918;BME280;26644;50.248;19.032;2023-01-30T07:28:46;97456.16;;;-2.28;65.35
40918;BME280;26644;50.248;19.032;2023-01-30T07:31:53;97467.66;;;-2.14;64.99
40918;BME280;26644;50.248;19.032;2023-01-30T07:34:59;97466.81;;;-2.15;65.04
40918;BME280;26644;50.248;19.032;2023-01-30T07:38:04;97473.31;;;-2.04;65.11
40918;BME280;26644;50.248;19.032;2023-01-30T07:41:10;97450.59;;;-2.08;64.92
40918;BME280;26644;50.248;19.032;2023-01-30T07:44:15;97468.22;;;-2.12;65.35
40918;BME280;26644;50.248;19.032;2023-01-30T07:47:24;97460.78;;;-2.10;65.17
40918;BME280;26644;50.248;19.032;2023-01-30T07:50:29;97427.66;;;-2.11;65.12
40918;BME280;26644;50.248;19.032;2023-01-30T07:53:35;97459.88;;;-2.04;65.28
40918;BME280;26644;50.248;19.032;2023-01-30T07:56:40;97444.72;;;-1.98;65.14
40918;BME280;26644;50.248;19.032;2023-01-30T07:59:46;97434.38;;;-2.01;65.32
40918;BME280;26644;50.248;19.032;2023-01-30T08:02:53;97413.00;;;-2.15;65.21
40918;BME280;26644;50.248;19.032;2023-01-30T08:05:59;97428.03;;;-2.07;65.05
40918;BME280;26644;50.248;19.032;2023-01-30T08:09:05;97443.59;;;-1.91;64.91
40918;BME280;26644;50.248;19.032;2023-01-30T08:12:11;97445.41;;;-1.84;64.90
40918;BME280;26644;50.248;19.032;2023-01-30T08:15:16;97456.78;;;-1.82;65.13
40918;BME280;26644;50.248;19.032;2023-01-30T08:18:25;97433.38;;;-1.82;65.06
40918;BME280;26644;50.248;19.032;2023-01-30T08:21:31;97416.56;;;-1.77;65.06
40918;BME280;26644;50.248;19.032;2023-01-30T08:24:37;97424.97;;;-1.74;65.01
40918;BME280;26644;50.248;19.032;2023-01-30T08:27:42;97418.88;;;-1.62;64.69
40918;BME280;26644;50.248;19.032;2023-01-30T08:30:48;97412.28;;;-1.48;64.33
40918;BME280;26644;50.248;19.032;2023-01-30T08:33:56;97392.97;;;-1.45;63.94
40918;BME280;26644;50.248;19.032;2023-01-30T08:37:02;97404.34;;;-1.31;63.71
40918;BME280;26644;50.248;19.032;2023-01-30T08:40:08;97405.44;;;-1.32;63.89
40918;BME280;26644;50.248;19.032;2023-01-30T08:43:15;97368.09;;;-1.59;64.00
40918;BME280;26644;50.248;19.032;2023-01-30T08:46:20;97409.72;;;-1.43;64.13
40918;BME280;26644;50.248;19.032;2023-01-30T08:49:28;97406.75;;;-1.53;64.21
40918;BME280;26644;50.248;19.032;2023-01-30T08:52:33;97420.56;;;-1.49;64.71
40918;BME280;26644;50.248;19.032;2023-01-30T08:55:39;97412.75;;;-1.39;64.48
40918;BME280;26644;50.248;19.032;2023-01-30T08:58:44;97416.72;;;-1.42;64.35
40918;BME280;26644;50.248;19.032;2023-01-30T09:01:50;97409.94;;;-1.44;64.48
40918;BME280;26644;50.248;19.032;2023-01-30T09:04:58;97381.25;;;-1.69;64.79
40918;BME280;26644;50.248;19.032;2023-01-30T09:08:04;97399.09;;;-1.56;65.03
40918;BME280;26644;50.248;19.032;2023-01-30T09:11:10;97386.06;;;-1.41;64.88
40918;BME280;26644;50.248;19.032;2023-01-30T09:14:17;97361.06;;;-1.60;64.90
40918;BME280;26644;50.248;19.032;2023-01-30T09:17:22;97386.06;;;-1.41;64.88
40918;BME280;26644;50.248;19.032;2023-01-30T09:20:32;97383.50;;;-1.35;65.06
40918;BME280;26644;50.248;19.032;2023-01-30T09:23:37;97365.75;;;-1.25;64.80
40918;BME280;26644;50.248;19.032;2023-01-30T09:26:44;97348.38;;;-1.41;65.02
40918;BME280;26644;50.248;19.032;2023-01-30T09:29:49;97345.03;;;-1.24;65.50
40918;BME280;26644;50.248;19.032;2023-01-30T09:32:55;97352.88;;;-1.22;65.70
40918;BME280;26644;50.248;19.032;2023-01-30T09:36:03;97351.25;;;-1.24;65.85
40918;BME280;26644;50.248;19.032;2023-01-30T09:39:10;97347.84;;;-1.19;66.24
40918;BME280;26644;50.248;19.032;2023-01-30T09:42:37;97340.84;;;-1.20;66.87
40918;BME280;26644;50.248;19.032;2023-01-30T09:46:10;97348.31;;;-1.22;67.08
40918;BME280;26644;50.248;19.032;2023-01-30T09:49:37;97331.00;;;-1.14;67.46
40918;BME280;26644;50.248;19.032;2023-01-30T09:53:11;97319.41;;;-1.15;66.98
40918;BME280;26644;50.248;19.032;2023-01-30T09:56:23;97313.69;;;-1.07;67.03
40918;BME280;26644;50.248;19.032;2023-01-30T09:59:34;97305.72;;;-1.13;67.12
40918;BME280;26644;50.248;19.032;2023-01-30T10:02:58;97322.22;;;-1.10;67.01
40918;BME280;26644;50.248;19.032;2023-01-30T10:06:12;97299.03;;;-1.11;67.40
40918;BME280;26644;50.248;19.032;2023-01-30T10:09:30;97294.94;;;-1.13;68.10
40918;BME280;26644;50.248;19.032;2023-01-30T10:12:52;97280.63;;;-1.26;68.85
40918;BME280;26644;50.248;19.032;2023-01-30T10:16:14;97288.56;;;-1.31;69.98
40918;BME280;26644;50.248;19.032;2023-01-30T10:19:41;97293.84;;;-1.36;71.04
40918;BME280;26644;50.248;19.032;2023-01-30T10:23:12;97303.34;;;-1.21;72.03
40918;BME280;26644;50.248;19.032;2023-01-30T10:26:32;97258.25;;;-1.38;71.87
40918;BME280;26644;50.248;19.032;2023-01-30T10:29:42;97281.44;;;-1.25;72.35
40918;BME280;26644;50.248;19.032;2023-01-30T10:32:56;97255.06;;;-1.35;72.68
40918;BME280;26644;50.248;19.032;2023-01-30T10:36:09;97266.56;;;-1.28;73.20
40918;BME280;26644;50.248;19.032;2023-01-30T10:39:25;97261.88;;;-1.32;74.11
40918;BME280;26644;50.248;19.032;2023-01-30T10:42:47;97253.78;;;-1.32;74.71
40918;BME280;26644;50.248;19.032;2023-01-30T10:46:15;97254.38;;;-1.42;75.32
40918;BME280;26644;50.248;19.032;2023-01-30T10:49:38;97232.72;;;-1.35;75.16
40918;BME280;26644;50.248;19.032;2023-01-30T10:52:55;97238.38;;;-1.25;75.02
40918;BME280;26644;50.248;19.032;2023-01-30T10:56:14;97228.16;;;-1.23;74.30
40918;BME280;26644;50.248;19.032;2023-01-30T10:59:40;97245.06;;;-1.16;74.35
40918;BME280;26644;50.248;19.032;2023-01-30T11:03:14;97262.25;;;-1.17;74.95
40918;BME280;26644;50.248;19.032;2023-01-30T11:06:32;97224.53;;;-1.29;75.49
40918;BME280;26644;50.248;19.032;2023-01-30T11:09:40;97232.03;;;-1.19;76.04
40918;BME280;26644;50.248;19.032;2023-01-30T11:12:51;97224.31;;;-1.27;76.34
40918;BME280;26644;50.248;19.032;2023-01-30T11:16:05;97213.06;;;-1.24;75.17
40918;BME280;26644;50.248;19.032;2023-01-30T11:19:14;97202.28;;;-1.12;75.28
40918;BME280;26644;50.248;19.032;2023-01-30T11:22:24;97192.59;;;-1.01;74.61
40918;BME280;26644;50.248;19.032;2023-01-30T11:25:31;97123.59;;;-1.50;74.23
40918;BME280;26644;50.248;19.032;2023-01-30T11:28:51;97170.56;;;-1.10;74.43
40918;BME280;26644;50.248;19.032;2023-01-30T11:32:04;97180.41;;;-1.04;74.85
40918;BME280;26644;50.248;19.032;2023-01-30T11:35:27;97165.03;;;-1.03;75.24
40918;BME280;26644;50.248;19.032;2023-01-30T11:38:55;97154.03;;;-1.02;75.55
40918;BME280;26644;50.248;19.032;2023-01-30T11:42:02;97155.91;;;-0.91;75.20
40918;BME280;26644;50.248;19.032;2023-01-30T11:45:11;97150.50;;;-0.91;75.22
40918;BME280;26644;50.248;19.032;2023-01-30T11:48:22;97133.88;;;-0.99;75.34
40918;BME280;26644;50.248;19.032;2023-01-30T11:51:34;97144.06;;;-0.89;75.71
40918;BME280;26644;50.248;19.032;2023-01-30T11:54:43;97146.03;;;-0.85;76.23
40918;BME280;26644;50.248;19.032;2023-01-30T11:57:55;97139.84;;;-0.85;76.03
40918;BME280;26644;50.248;19.032;2023-01-30T12:01:02;97112.19;;;-0.93;76.18
40918;BME280;26644;50.248;19.032;2023-01-30T12:04:12;97123.66;;;-0.74;76.28
40918;BME280;26644;50.248;19.032;2023-01-30T12:07:22;97091.59;;;-0.87;75.92
40918;BME280;26644;50.248;19.032;2023-01-30T12:10:30;97116.97;;;-0.71;75.86
40918;BME280;26644;50.248;19.032;2023-01-30T12:13:38;97112.03;;;-0.74;76.11
40918;BME280;26644;50.248;19.032;2023-01-30T12:16:56;97094.84;;;-0.85;75.69
40918;BME280;26644;50.248;19.032;2023-01-30T12:20:16;97117.50;;;-0.57;75.80
40918;BME280;26644;50.248;19.032;2023-01-30T12:23:39;97088.13;;;-0.70;76.14
40918;BME280;26644;50.248;19.032;2023-01-30T12:26:52;97101.28;;;-0.45;76.02
40918;BME280;26644;50.248;19.032;2023-01-30T12:30:14;97108.56;;;-0.46;75.64
40918;BME280;26644;50.248;19.032;2023-01-30T12:33:29;97111.34;;;-0.41;75.75
40918;BME280;26644;50.248;19.032;2023-01-30T12:36:46;97103.38;;;-0.47;77.16
40918;BME280;26644;50.248;19.032;2023-01-30T12:40:11;97106.19;;;-0.42;77.79
40918;BME280;26644;50.248;19.032;2023-01-30T12:43:43;97110.16;;;-0.45;78.04
40918;BME280;26644;50.248;19.032;2023-01-30T12:47:16;97097.66;;;-0.51;79.88
40918;BME280;26644;50.248;19.032;2023-01-30T12:50:47;97110.00;;;-0.55;81.32
40918;BME280;26644;50.248;19.032;2023-01-30T12:54:16;97095.13;;;-0.58;81.95
40918;BME280;26644;50.248;19.032;2023-01-30T12:57:45;97084.13;;;-0.68;82.02
40918;BME280;26644;50.248;19.032;2023-01-30T13:01:13;97086.94;;;-0.63;82.31
40918;BME280;26644;50.248;19.032;2023-01-30T13:04:40;97084.22;;;-0.63;82.30
40918;BME280;26644;50.248;19.032;2023-01-30T13:08:07;97086.69;;;-0.61;82.25
40918;BME280;26644;50.248;19.032;2023-01-30T13:11:43;97089.38;;;-0.61;82.47
40918;BME280;26644;50.248;19.032;2023-01-30T13:15:06;97088.88;;;-0.58;82.47
40918;BME280;26644;50.248;19.032;2023-01-30T13:18:32;97078.22;;;-0.53;81.78
40918;BME280;26644;50.248;19.032;2023-01-30T13:21:47;97076.81;;;-0.55;81.91
40918;BME280;26644;50.248;19.032;2023-01-30T13:25:05;97050.59;;;-0.60;81.78
40918;BME280;26644;50.248;19.032;2023-01-30T13:28:30;97077.75;;;-0.50;81.94
40918;BME280;26644;50.248;19.032;2023-01-30T13:31:48;97075.22;;;-0.40;81.33
40918;BME280;26644;50.248;19.032;2023-01-30T13:35:00;97071.56;;;-0.33;80.53
40918;BME280;26644;50.248;19.032;2023-01-30T13:38:17;97064.06;;;-0.31;79.86
40918;BME280;26644;50.248;19.032;2023-01-30T13:41:30;97065.41;;;-0.29;79.45
40918;BME280;26644;50.248;19.032;2023-01-30T13:45:03;97063.81;;;-0.30;78.45
40918;BME280;26644;50.248;19.032;2023-01-30T13:51:55;97057.78;;;-0.03;77.47
40918;BME280;26644;50.248;19.032;2023-01-30T13:55:18;97051.06;;;-0.00;76.63
40918;BME280;26644;50.248;19.032;2023-01-30T13:58:42;97054.84;;;0.16;76.01
40918;BME280;26644;50.248;19.032;2023-01-30T14:02:15;97050.41;;;0.26;75.38
40918;BME280;26644;50.248;19.032;2023-01-30T14:09:28;97037.69;;;0.44;74.51
40918;BME280;26644;50.248;19.032;2023-01-30T14:12:39;97044.56;;;0.52;74.13
40918;BME280;26644;50.248;19.032;2023-01-30T14:15:53;97010.16;;;0.42;73.63
40918;BME280;26644;50.248;19.032;2023-01-30T14:19:20;97033.31;;;0.60;73.47
40918;BME280;26644;50.248;19.032;2023-01-30T14:22:41;97028.75;;;0.60;73.44
40918;BME280;26644;50.248;19.032;2023-01-30T14:25:56;97038.47;;;0.62;73.00
40918;BME280;26644;50.248;19.032;2023-01-30T14:29:01;97041.13;;;0.56;72.82
40918;BME280;26644;50.248;19.032;2023-01-30T14:32:34;97042.53;;;0.59;72.96
40918;BME280;26644;50.248;19.032;2023-01-30T14:39:51;97048.97;;;0.58;73.41
40918;BME280;26644;50.248;19.032;2023-01-30T14:46:57;97029.03;;;0.42;73.99
40918;BME280;26644;50.248;19.032;2023-01-30T14:50:02;97051.94;;;0.56;74.11
40918;BME280;26644;50.248;19.032;2023-01-30T14:53:23;97058.47;;;0.60;74.19
40918;BME280;26644;50.248;19.032;2023-01-30T14:56:39;97055.44;;;0.57;73.70
40918;BME280;26644;50.248;19.032;2023-01-30T14:59:53;97058.03;;;0.69;74.03
40918;BME280;26644;50.248;19.032;2023-01-30T15:03:03;97064.00;;;0.71;74.32
40918;BME280;26644;50.248;19.032;2023-01-30T15:06:21;97063.44;;;0.69;74.61
40918;BME280;26644;50.248;19.032;2023-01-30T15:09:31;97066.16;;;0.69;74.87
40918;BME280;26644;50.248;19.032;2023-01-30T15:13:00;97048.41;;;0.56;74.85
40918;BME280;26644;50.248;19.032;2023-01-30T15:20:24;97074.06;;;0.75;74.56
40918;BME280;26644;50.248;19.032;2023-01-30T15:24:02;97062.84;;;0.67;74.72
40918;BME280;26644;50.248;19.032;2023-01-30T15:27:29;97081.13;;;0.76;74.57
40918;BME280;26644;50.248;19.032;2023-01-30T15:30:57;97069.09;;;0.67;74.54
40918;BME280;26644;50.248;19.032;2023-01-30T15:34:19;97073.81;;;0.77;74.28
40918;BME280;26644;50.248;19.032;2023-01-30T15:37:33;97101.78;;;0.88;73.96
40918;BME280;26644;50.248;19.032;2023-01-30T15:40:41;97105.88;;;0.90;74.11
40918;BME280;26644;50.248;19.032;2023-01-30T15:44:19;97104.56;;;0.93;74.18
40918;BME280;26644;50.248;19.032;2023-01-30T15:47:54;97104.50;;;0.88;74.36
40918;BME280;26644;50.248;19.032;2023-01-30T15:51:24;97111.69;;;0.99;74.21
40918;BME280;26644;50.248;19.032;2023-01-30T15:54:31;97112.75;;;0.98;74.40
40918;BME280;26644;50.248;19.032;2023-01-30T15:57:39;97118.06;;;0.93;74.48
40918;BME280;26644;50.248;19.032;2023-01-30T16:00:51;97113.19;;;0.90;74.97
40918;BME280;26644;50.248;19.032;2023-01-30T16:03:59;97094.91;;;0.80;75.09
40918;BME280;26644;50.248;19.032;2023-01-30T16:07:16;97115.44;;;0.98;74.94
40918;BME280;26644;50.248;19.032;2023-01-30T16:10:29;97103.09;;;0.85;74.75
40918;BME280;26644;50.248;19.032;2023-01-30T16:13:35;97112.59;;;0.88;74.98
40918;BME280;26644;50.248;19.032;2023-01-30T16:16:47;97133.56;;;0.98;74.80
40918;BME280;26644;50.248;19.032;2023-01-30T16:19:59;97131.91;;;0.97;74.75
40918;BME280;26644;50.248;19.032;2023-01-30T16:23:18;97142.78;;;1.02;74.47
40918;BME280;26644;50.248;19.032;2023-01-30T16:26:29;97143.78;;;0.96;74.36
40918;BME280;26644;50.248;19.032;2023-01-30T16:29:47;97134.75;;;1.07;74.37
40918;BME280;26644;50.248;19.032;2023-01-30T16:33:05;97129.59;;;1.05;74.01
40918;BME280;26644;50.248;19.032;2023-01-30T16:36:28;97144.38;;;1.20;73.96
40918;BME280;26644;50.248;19.032;2023-01-30T16:39:37;97128.59;;;1.12;73.57
40918;BME280;26644;50.248;19.032;2023-01-30T16:42:54;97149.47;;;1.16;73.44
40918;BME280;26644;50.248;19.032;2023-01-30T16:50:02;97161.31;;;1.32;72.99
40918;BME280;26644;50.248;19.032;2023-01-30T16:53:13;97154.53;;;1.30;73.13
40918;BME280;26644;50.248;19.032;2023-01-30T16:56:23;97134.06;;;1.17;72.77
40918;BME280;26644;50.248;19.032;2023-01-30T16:59:32;97159.78;;;1.19;73.32
40918;BME280;26644;50.248;19.032;2023-01-30T17:02:40;97159.72;;;1.14;73.38
40918;BME280;26644;50.248;19.032;2023-01-30T17:05:55;97157.19;;;1.07;73.84
40918;BME280;26644;50.248;19.032;2023-01-30T17:09:01;97147.94;;;1.03;73.94
40918;BME280;26644;50.248;19.032;2023-01-30T17:12:35;97152.56;;;1.03;74.13
40918;BME280;26644;50.248;19.032;2023-01-30T17:15:41;97130.13;;;0.85;74.49
40918;BME280;26644;50.248;19.032;2023-01-30T17:18:47;97139.94;;;0.91;74.73